New Iberia, LA (70563)

10:08 AM CDT on September 01, 2015 (GMT -0500)
Belair | | Change Station
CLOSE
Current Station
Personal Weather Station
Location: New Iberia, LA
Elevation: 18 ft
Nearby Weather Stations

Elev 18 ft 29.99 °N, 91.77 °W | Updated 5 seconds ago

Partly Cloudy
Partly Cloudy
85.1 °F
Feels Like 95 °F
N
0.0
Wind Variable Wind from NNW
Gusts 0.0 mph

Today
High -- | Low -- °F
--% Chance of Precip.
Yesterday
High -- | Low -- °F
Precip. -- in
6:43 AM 7:29 PM
Waning Gibbous, 88% visible
Pressure 30.09 in
Visibility 10.0 miles
Clouds Clear
Heat Index 95 °F
Dew Point 77 °F
Humidity 76%
Rainfall 0.00 in
Snow Depth Not available.
UV 6 out of 12
Pollen 8.10 out of 12
Air Quality Not available.
Flu Activity Not available.
METAR KARA 011453Z 09007KT 10SM CLR 29/23 A3009 RMK AO2 SLP188 T02940233 50016
Pressure 30.09 in
Visibility 10.0 miles
Clouds Clear
Heat Index 95 °F
Dew Point 77 °F
Humidity 76%
Rainfall 0.00 in
Snow Depth Not available.
UV 6 out of 12
Pollen 8.10 out of 12
Air Quality Not available.
Flu Activity Not available.
METAR KARA 011453Z 09007KT 10SM CLR 29/23 A3009 RMK AO2 SLP188 T02940233 50016

10-Day Weather Forecast

×

Almanac

Astronomy

Sep. 01, 2015 Rise Set
Actual Time
Civil Twilight
Nautical Twilight
Astronomical Twilight
Moon
Length of Visible Light
Length of Day
Tomorrow will be .
, % of the Moon is Illuminated

Today's Extremes

State Highs State Lows

Community

WunderPhotos

Upload Photos

1,851,520 photos uploaded!

WunderBlogs® & News

Nearby

Air Quality

  Air Quality AQ Index Pollutant
Not available.

Snow Depth

Station Depth Elevation

Earthquake Activity

City Distance Mag. Time & Date
Minimum magnitude displayed is 2.5.

Coastal Water Temperatures

Place Temperature

Stations

Nearby Weather Stations

Station Location Temp. Windchill Dew Point Humidity Wind Precip. Elev Updated Type